Terminal Aerodrome Forecast
Issued by NWS Topeka, KS

Home | Current Version | Previous Version | Text Only | Print | Product List | Glossary Off
Versions: 1 2 3 4 5 6 7 8 9 10 11 12 13 14 15 16 17 18 19 20 21

000
FTUS43 KTOP 222338
TAFTOP
TAF
KTOP 222338Z 2300/2324 VRB03KT P6SM FEW250
     FM231300 08008KT P6SM BKN150
     FM231500 08011G21KT P6SM VCSH OVC060
     FM231800 10012KT P6SM BKN040
     FM232200 13010KT P6SM BKN130=

USA.gov is the U.S. government's official web portal to all federal, state and local government web resources and services.